Time,TemperatureF,DewpointF,PressureIn,WindDirection,WindDirectionDegrees,WindSpeedMPH,WindSpeedGustMPH,Humidity,HourlyPrecipIn,Conditions,Clouds,dailyrainin,SoftwareType,DateUTC
2013-07-22 00:02:00,67.8,63.1,26.59,West,270,0.0,0.0,85,0.00,,,0.00,WUHU216HW,2013-07-22 04:02:00,
2013-07-22 00:07:00,67.8,63.1,26.59,West,270,0.0,0.0,85,0.00,,,0.00,WUHU216HW,2013-07-22 04:07:00,
2013-07-22 00:12:00,67.8,63.1,26.59,West,270,0.0,0.0,85,0.00,,,0.00,WUHU216HW,2013-07-22 04:12:00,
2013-07-22 00:17:00,67.6,62.9,26.59,West,270,0.0,0.0,85,0.00,,,0.00,WUHU216HW,2013-07-22 04:17:00,
2013-07-22 00:22:00,67.6,62.9,26.59,West,270,0.0,0.0,85,0.00,,,0.00,WUHU216HW,2013-07-22 04:22:00,
2013-07-22 00:27:00,67.6,62.9,26.58,West,270,0.0,0.0,85,0.00,,,0.00,WUHU216HW,2013-07-22 04:27:00,
2013-07-22 00:32:00,67.6,62.9,26.59,West,270,0.0,0.0,85,0.00,,,0.00,WUHU216HW,2013-07-22 04:32:00,
2013-07-22 00:37:00,67.6,62.9,26.59,West,270,0.0,0.0,85,0.00,,,0.00,WUHU216HW,2013-07-22 04:37:00,
2013-07-22 00:42:00,67.4,62.7,26.59,West,270,0.0,0.0,85,0.00,,,0.00,WUHU216HW,2013-07-22 04:42:00,
2013-07-22 00:47:00,67.2,62.6,26.58,West,270,0.0,0.0,85,0.00,,,0.00,WUHU216HW,2013-07-22 04:47:00,
2013-07-22 00:52:00,67.2,62.6,26.58,West,270,0.0,0.0,85,0.00,,,0.00,WUHU216HW,2013-07-22 04:52:00,
2013-07-22 00:57:00,66.9,62.4,26.58,West,270,0.0,0.0,85,0.00,,,0.00,WUHU216HW,2013-07-22 04:57:00,
2013-07-22 01:02:00,66.9,62.5,26.57,West,270,0.0,0.0,86,0.00,,,0.00,WUHU216HW,2013-07-22 05:02:00,
2013-07-22 01:07:00,66.9,62.5,26.58,West,270,0.0,0.0,86,0.00,,,0.00,WUHU216HW,2013-07-22 05:07:00,
2013-07-22 01:12:00,66.7,62.3,26.57,West,270,0.0,0.0,86,0.00,,,0.00,WUHU216HW,2013-07-22 05:12:00,
2013-07-22 01:17:00,66.7,62.3,26.57,West,270,0.0,0.0,86,0.00,,,0.00,WUHU216HW,2013-07-22 05:17:00,
2013-07-22 01:22:00,66.7,62.3,26.57,West,270,0.0,0.0,86,0.00,,,0.00,WUHU216HW,2013-07-22 05:22:00,
2013-07-22 01:27:00,66.5,62.2,26.57,West,270,0.0,0.0,86,0.00,,,0.00,WUHU216HW,2013-07-22 05:27:00,
2013-07-22 01:32:00,66.3,62.0,26.57,West,270,0.0,0.0,86,0.00,,,0.00,WUHU216HW,2013-07-22 05:32:00,
2013-07-22 01:37:00,66.2,61.8,26.57,West,270,0.0,0.0,86,0.00,,,0.00,WUHU216HW,2013-07-22 05:37:00,
2013-07-22 01:42:00,66.0,61.6,26.56,West,270,0.0,0.0,86,0.00,,,0.00,WUHU216HW,2013-07-22 05:42:00,
2013-07-22 01:47:00,66.0,61.6,26.56,West,270,0.0,0.0,86,0.00,,,0.00,WUHU216HW,2013-07-22 05:47:00,
2013-07-22 01:52:00,66.0,61.6,26.56,West,270,0.0,0.0,86,0.00,,,0.00,WUHU216HW,2013-07-22 05:52:00,
2013-07-22 01:57:00,66.0,61.6,26.56,West,270,0.0,0.0,86,0.00,,,0.00,WUHU216HW,2013-07-22 05:57:00,
2013-07-22 02:02:00,66.0,61.6,26.56,West,270,0.0,0.0,86,0.00,,,0.00,WUHU216HW,2013-07-22 06:02:00,
2013-07-22 02:07:00,66.0,61.6,26.55,West,270,0.0,0.0,86,0.00,,,0.00,WUHU216HW,2013-07-22 06:07:00,
2013-07-22 02:12:00,66.0,61.6,26.56,West,270,0.0,0.0,86,0.00,,,0.00,WUHU216HW,2013-07-22 06:12:00,
2013-07-22 02:17:00,66.0,61.6,26.55,West,270,0.0,0.0,86,0.00,,,0.00,WUHU216HW,2013-07-22 06:17:00,
2013-07-22 02:22:00,66.0,61.6,26.55,West,270,0.0,0.0,86,0.00,,,0.00,WUHU216HW,2013-07-22 06:22:00,
2013-07-22 02:27:00,66.0,61.6,26.55,West,270,0.0,0.0,86,0.00,,,0.00,WUHU216HW,2013-07-22 06:27:00,
2013-07-22 02:33:00,65.8,61.5,26.55,West,270,0.0,0.0,86,0.00,,,0.00,WUHU216HW,2013-07-22 06:33:00,
2013-07-22 02:38:00,65.4,61.1,26.54,West,270,0.0,0.0,86,0.00,,,0.00,WUHU216HW,2013-07-22 06:38:00,
2013-07-22 02:43:00,65.3,60.9,26.54,West,270,0.0,0.0,86,0.00,,,0.00,WUHU216HW,2013-07-22 06:43:00,
2013-07-22 02:49:00,65.1,60.8,26.55,West,270,0.0,0.0,86,0.00,,,0.00,WUHU216HW,2013-07-22 06:49:00,
2013-07-22 02:54:00,64.9,60.6,26.54,West,270,0.0,0.0,86,0.00,,,0.00,WUHU216HW,2013-07-22 06:54:00,
2013-07-22 02:59:00,64.9,60.9,26.54,West,270,0.0,0.0,87,0.00,,,0.00,WUHU216HW,2013-07-22 06:59:00,
2013-07-22 03:05:00,64.7,60.8,26.53,West,270,0.0,0.0,87,0.00,,,0.00,WUHU216HW,2013-07-22 07:05:00,
2013-07-22 03:10:00,64.5,60.6,26.53,West,270,0.0,0.0,87,0.00,,,0.00,WUHU216HW,2013-07-22 07:10:00,
2013-07-22 03:16:00,64.4,60.4,26.53,West,270,0.0,0.0,87,0.00,,,0.00,WUHU216HW,2013-07-22 07:16:00,
2013-07-22 03:21:00,64.2,60.3,26.53,West,270,0.0,0.0,87,0.00,,,0.00,WUHU216HW,2013-07-22 07:21:00,
2013-07-22 03:26:00,64.2,60.3,26.53,West,270,0.0,0.0,87,0.00,,,0.00,WUHU216HW,2013-07-22 07:26:00,
2013-07-22 03:31:00,64.0,60.4,26.53,West,270,0.0,0.0,88,0.00,,,0.00,WUHU216HW,2013-07-22 07:31:00,
2013-07-22 03:36:00,63.6,60.1,26.52,West,270,0.0,0.0,88,0.00,,,0.00,WUHU216HW,2013-07-22 07:36:00,
2013-07-22 03:41:00,63.6,60.1,26.52,West,270,0.0,0.0,88,0.00,,,0.00,WUHU216HW,2013-07-22 07:41:00,
2013-07-22 03:46:00,63.5,59.9,26.52,West,270,0.0,0.0,88,0.00,,,0.00,WUHU216HW,2013-07-22 07:46:00,
2013-07-22 03:51:00,63.5,59.9,26.52,West,270,0.0,0.0,88,0.00,,,0.00,WUHU216HW,2013-07-22 07:51:00,
2013-07-22 03:56:00,63.1,59.5,26.52,WNW,293,0.0,0.0,88,0.00,,,0.00,WUHU216HW,2013-07-22 07:56:00,
2013-07-22 04:01:00,63.1,59.5,26.52,WNW,293,0.0,0.0,88,0.00,,,0.00,WUHU216HW,2013-07-22 08:01:00,
2013-07-22 04:06:00,63.1,59.9,26.52,WNW,293,0.0,0.0,89,0.00,,,0.00,WUHU216HW,2013-07-22 08:06:00,
2013-07-22 04:11:00,63.1,59.9,26.52,WNW,293,0.0,0.0,89,0.00,,,0.00,WUHU216HW,2013-07-22 08:11:00,
2013-07-22 04:16:00,63.1,59.9,26.51,WNW,293,0.0,0.0,89,0.00,,,0.00,WUHU216HW,2013-07-22 08:16:00,
2013-07-22 04:21:00,62.9,59.7,26.52,WNW,293,0.0,0.0,89,0.00,,,0.00,WUHU216HW,2013-07-22 08:21:00,
2013-07-22 04:26:00,62.9,59.7,26.52,WNW,293,0.0,0.0,89,0.00,,,0.00,WUHU216HW,2013-07-22 08:26:00,
2013-07-22 04:31:00,62.9,59.7,26.52,WNW,293,0.0,0.0,89,0.00,,,0.00,WUHU216HW,2013-07-22 08:31:00,
2013-07-22 04:36:00,62.9,59.7,26.52,WNW,293,0.0,0.0,89,0.00,,,0.00,WUHU216HW,2013-07-22 08:36:00,
2013-07-22 04:41:00,62.9,59.7,26.52,WNW,293,0.0,0.0,89,0.00,,,0.00,WUHU216HW,2013-07-22 08:41:00,
2013-07-22 04:46:00,62.7,59.9,26.52,WNW,293,0.0,0.0,90,0.00,,,0.00,WUHU216HW,2013-07-22 08:46:00,
2013-07-22 04:51:00,62.7,59.9,26.52,WNW,293,0.0,0.0,90,0.00,,,0.00,WUHU216HW,2013-07-22 08:51:00,
2013-07-22 04:56:00,62.7,59.9,26.52,WNW,293,1.5,1.5,90,0.00,,,0.00,WUHU216HW,2013-07-22 08:56:00,
2013-07-22 05:01:00,62.7,59.9,26.52,NW,315,0.0,1.5,90,0.00,,,0.00,WUHU216HW,2013-07-22 09:01:00,
2013-07-22 05:06:00,62.7,59.9,26.52,NW,315,0.0,0.0,90,0.00,,,0.00,WUHU216HW,2013-07-22 09:06:00,
2013-07-22 05:11:00,62.6,59.7,26.52,NW,315,0.0,0.0,90,0.00,,,0.00,WUHU216HW,2013-07-22 09:11:00,
2013-07-22 05:16:00,62.6,60.0,26.52,NW,315,0.0,0.6,91,0.00,,,0.00,WUHU216HW,2013-07-22 09:16:00,
2013-07-22 05:21:00,62.6,60.0,26.52,NW,315,0.0,0.6,91,0.00,,,0.00,WUHU216HW,2013-07-22 09:21:00,
2013-07-22 05:26:00,62.4,59.8,26.52,NW,315,0.0,0.0,91,0.00,,,0.00,WUHU216HW,2013-07-22 09:26:00,
2013-07-22 05:32:00,62.4,59.8,26.52,NW,315,0.4,0.4,91,0.00,,,0.00,WUHU216HW,2013-07-22 09:32:00,
2013-07-22 05:37:00,62.4,59.8,26.52,NW,315,1.7,1.7,91,0.00,,,0.00,WUHU216HW,2013-07-22 09:37:00,
2013-07-22 05:42:00,62.4,59.8,26.53,NW,315,0.0,1.7,91,0.00,,,0.00,WUHU216HW,2013-07-22 09:42:00,
2013-07-22 05:47:00,62.4,59.8,26.52,NW,315,0.0,1.7,91,0.00,,,0.00,WUHU216HW,2013-07-22 09:47:00,
2013-07-22 05:52:00,62.4,59.8,26.53,NW,315,1.5,1.5,91,0.00,,,0.00,WUHU216HW,2013-07-22 09:52:00,
2013-07-22 05:57:00,62.4,59.8,26.53,NW,315,0.0,1.5,91,0.00,,,0.00,WUHU216HW,2013-07-22 09:57:00,
2013-07-22 06:02:00,62.4,59.8,26.53,NW,315,0.0,1.5,91,0.00,,,0.00,WUHU216HW,2013-07-22 10:02:00,
2013-07-22 06:07:00,62.4,59.8,26.53,NW,315,0.0,0.0,91,0.00,,,0.00,WUHU216HW,2013-07-22 10:07:00,
2013-07-22 06:12:00,62.6,60.0,26.53,NW,315,0.0,0.0,91,0.00,,,0.00,WUHU216HW,2013-07-22 10:12:00,
2013-07-22 06:17:00,62.6,60.0,26.53,NW,315,0.0,0.0,91,0.00,,,0.00,WUHU216HW,2013-07-22 10:17:00,
2013-07-22 06:22:00,62.7,60.1,26.53,NW,315,0.0,0.0,91,0.00,,,0.00,WUHU216HW,2013-07-22 10:22:00,
2013-07-22 06:27:00,62.7,60.1,26.53,NW,315,0.0,0.0,91,0.00,,,0.00,WUHU216HW,2013-07-22 10:27:00,
2013-07-22 06:32:00,62.7,60.4,26.53,NW,315,0.0,0.0,92,0.00,,,0.00,WUHU216HW,2013-07-22 10:32:00,
2013-07-22 06:37:00,62.9,60.6,26.53,NW,315,0.0,0.0,92,0.00,,,0.00,WUHU216HW,2013-07-22 10:37:00,
2013-07-22 06:42:00,62.9,60.6,26.53,NW,315,0.0,0.0,92,0.00,,,0.00,WUHU216HW,2013-07-22 10:42:00,
2013-07-22 06:47:00,62.9,60.6,26.54,NW,315,0.0,0.0,92,0.00,,,0.00,WUHU216HW,2013-07-22 10:47:00,
2013-07-22 06:52:00,62.9,60.6,26.54,NW,315,0.0,0.0,92,0.00,,,0.00,WUHU216HW,2013-07-22 10:52:00,
2013-07-22 06:57:00,62.9,60.6,26.54,NW,315,0.0,0.0,92,0.00,,,0.00,WUHU216HW,2013-07-22 10:57:00,
2013-07-22 07:02:00,62.9,60.6,26.54,NW,315,0.0,0.0,92,0.00,,,0.00,WUHU216HW,2013-07-22 11:02:00,
2013-07-22 07:07:00,62.9,60.6,26.54,NW,315,0.0,0.0,92,0.00,,,0.00,WUHU216HW,2013-07-22 11:07:00,
2013-07-22 07:12:00,62.9,60.6,26.54,NW,315,0.0,0.0,92,0.00,,,0.00,WUHU216HW,2013-07-22 11:12:00,
2013-07-22 07:17:00,62.9,60.6,26.54,NW,315,0.0,0.0,92,0.00,,,0.00,WUHU216HW,2013-07-22 11:17:00,
2013-07-22 07:22:00,63.1,60.8,26.54,NW,315,0.0,0.0,92,0.00,,,0.00,WUHU216HW,2013-07-22 11:22:00,
2013-07-22 07:27:00,63.1,60.8,26.54,NW,315,0.0,0.0,92,0.00,,,0.00,WUHU216HW,2013-07-22 11:27:00,
2013-07-22 07:32:00,63.3,61.0,26.54,NW,315,0.0,0.0,92,0.00,,,0.00,WUHU216HW,2013-07-22 11:32:00,
2013-07-22 07:37:00,63.3,61.0,26.55,NW,315,0.0,0.0,92,0.00,,,0.00,WUHU216HW,2013-07-22 11:37:00,
2013-07-22 07:42:00,63.3,61.0,26.55,NW,315,0.0,0.0,92,0.00,,,0.00,WUHU216HW,2013-07-22 11:42:00,
2013-07-22 09:59:00,67.1,64.0,26.57,NW,315,0.0,0.0,90,0.00,,,0.00,WUHU216HW,2013-07-22 13:59:00,
2013-07-22 14:06:00,75.7,66.8,26.52,NW,315,0.0,0.0,74,0.00,,,0.00,WUHU216HW,2013-07-22 18:06:00,
2013-07-22 19:18:00,72.6,65.0,26.46,SSE,158,0.0,0.0,77,0.00,,,0.00,WUHU216HW,2013-07-22 23:18:00,
2013-07-22 19:23:00,72.6,65.0,26.45,SSE,158,0.0,0.0,77,0.00,,,0.00,WUHU216HW,2013-07-22 23:23:00,
2013-07-22 19:28:00,72.3,64.7,26.45,SSE,158,0.0,0.0,77,0.00,,,0.00,WUHU216HW,2013-07-22 23:28:00,
2013-07-22 19:33:00,72.1,64.9,26.45,SSE,158,0.0,0.0,78,0.00,,,0.00,WUHU216HW,2013-07-22 23:33:00,
2013-07-22 19:38:00,71.9,65.1,26.45,SSE,158,0.0,0.0,79,0.00,,,0.00,WUHU216HW,2013-07-22 23:38:00,
2013-07-22 19:43:00,71.7,64.9,26.46,SSE,158,0.0,0.0,79,0.00,,,0.00,WUHU216HW,2013-07-22 23:43:00,
2013-07-22 19:48:00,71.4,64.9,26.45,SSE,158,0.0,3.1,79,0.00,,,0.00,WUHU216HW,2013-07-22 23:48:00,
2013-07-22 19:53:00,71.4,64.9,26.46,SSE,158,0.0,3.1,80,0.00,,,0.00,WUHU216HW,2013-07-22 23:53:00,
2013-07-22 19:58:00,71.2,64.7,26.47,SSE,158,0.0,0.0,80,0.00,,,0.00,WUHU216HW,2013-07-22 23:58:00,
2013-07-22 20:03:00,71.0,64.7,26.47,SSE,158,0.0,0.0,81,0.00,,,0.00,WUHU216HW,2013-07-23 00:03:00,
2013-07-22 20:08:00,70.5,64.3,26.47,SE,135,0.0,0.0,81,0.00,,,0.00,WUHU216HW,2013-07-23 00:08:00,
2013-07-22 20:13:00,70.3,64.5,26.47,SE,135,0.0,0.0,82,0.00,,,0.00,WUHU216HW,2013-07-23 00:13:00,
2013-07-22 20:18:00,70.1,64.3,26.48,SE,135,0.0,0.0,82,0.00,,,0.00,WUHU216HW,2013-07-23 00:18:00,
2013-07-22 20:23:00,69.9,64.1,26.48,SE,135,0.0,0.0,82,0.00,,,0.00,WUHU216HW,2013-07-23 00:23:00,
2013-07-22 20:29:00,69.6,63.8,26.47,SE,135,0.0,0.0,82,0.00,,,0.00,WUHU216HW,2013-07-23 00:29:00,
2013-07-22 20:34:00,69.4,64.0,26.47,SE,135,0.0,0.0,83,0.00,,,0.00,WUHU216HW,2013-07-23 00:34:00,
2013-07-22 20:39:00,69.0,64.0,26.47,SE,135,0.0,0.0,84,0.00,,,0.00,WUHU216HW,2013-07-23 00:39:00,
2013-07-22 20:44:00,69.0,64.0,26.47,SE,135,0.0,0.0,84,0.00,,,0.00,WUHU216HW,2013-07-23 00:44:00,
2013-07-22 20:49:00,69.0,64.3,26.47,SE,135,0.0,0.0,85,0.00,,,0.00,WUHU216HW,2013-07-23 00:49:00,
2013-07-22 20:54:00,69.0,64.3,26.46,SE,135,0.0,0.0,85,0.00,,,0.00,WUHU216HW,2013-07-23 00:54:00,
2013-07-22 20:59:00,69.0,64.3,26.46,SE,135,0.0,0.0,85,0.00,,,0.00,WUHU216HW,2013-07-23 00:59:00,
2013-07-22 21:04:00,68.9,64.1,26.47,SE,135,0.0,0.0,85,0.00,,,0.00,WUHU216HW,2013-07-23 01:04:00,
2013-07-22 21:09:00,68.9,64.1,26.47,SE,135,0.0,0.0,85,0.00,,,0.00,WUHU216HW,2013-07-23 01:09:00,
2013-07-22 21:14:00,68.9,64.5,26.47,SE,135,0.0,0.0,86,0.00,,,0.00,WUHU216HW,2013-07-23 01:14:00,
2013-07-22 21:19:00,68.7,64.3,26.47,SE,135,0.0,0.0,86,0.00,,,0.00,WUHU216HW,2013-07-23 01:19:00,
2013-07-22 21:24:00,68.7,64.0,26.46,SE,135,0.0,0.0,85,0.00,,,0.00,WUHU216HW,2013-07-23 01:24:00,
2013-07-22 21:29:00,68.5,63.8,26.46,SE,135,0.0,0.0,85,0.00,,,0.00,WUHU216HW,2013-07-23 01:29:00,
2013-07-22 21:34:00,68.5,63.8,26.46,SE,135,0.0,0.0,85,0.00,,,0.00,WUHU216HW,2013-07-23 01:34:00,
2013-07-22 21:39:00,68.5,63.8,26.46,SE,135,0.0,0.0,85,0.00,,,0.00,WUHU216HW,2013-07-23 01:39:00,
2013-07-22 21:44:00,68.5,63.8,26.46,SE,135,0.0,0.0,85,0.00,,,0.00,WUHU216HW,2013-07-23 01:44:00,